sensor_id;sensor_type;location;lat;lon;timestamp;pressure;altitude;pressure_sealevel;temperature;humidity
65553;BME280;52465;51.560;14.368;2023-04-10T00:00:07;101215.84;;;10.21;63.25
65553;BME280;52465;51.560;14.368;2023-04-10T00:02:34;101193.94;;;10.12;63.07
65553;BME280;52465;51.560;14.368;2023-04-10T00:05:01;101211.47;;;10.21;62.92
65553;BME280;52465;51.560;14.368;2023-04-10T00:07:27;101204.84;;;10.17;63.21
65553;BME280;52465;51.560;14.368;2023-04-10T00:09:56;101228.06;;;10.31;63.33
65553;BME280;52465;51.560;14.368;2023-04-10T00:12:21;101233.13;;;10.23;63.22
65553;BME280;52465;51.560;14.368;2023-04-10T00:14:47;101197.91;;;10.06;62.83
65553;BME280;52465;51.560;14.368;2023-04-10T00:17:12;101232.38;;;10.32;63.10
65553;BME280;52465;51.560;14.368;2023-04-10T00:19:38;101228.59;;;10.25;63.38
65553;BME280;52465;51.560;14.368;2023-04-10T00:22:04;101188.22;;;9.97;63.11
65553;BME280;52465;51.560;14.368;2023-04-10T00:24:30;101167.13;;;9.89;63.02
65553;BME280;52465;51.560;14.368;2023-04-10T00:26:55;101204.41;;;10.12;63.06
65553;BME280;52465;51.560;14.368;2023-04-10T00:29:21;101230.00;;;10.29;63.18
65553;BME280;52465;51.560;14.368;2023-04-10T00:31:47;101234.41;;;10.29;62.93
65553;BME280;52465;51.560;14.368;2023-04-10T00:34:15;101215.75;;;10.22;63.12
65553;BME280;52465;51.560;14.368;2023-04-10T00:36:40;101211.22;;;10.24;62.88
65553;BME280;52465;51.560;14.368;2023-04-10T00:39:27;101198.19;;;10.13;63.16
65553;BME280;52465;51.560;14.368;2023-04-10T00:41:53;101209.59;;;10.23;63.11
65553;BME280;52465;51.560;14.368;2023-04-10T00:44:18;101216.47;;;10.24;63.21
65553;BME280;52465;51.560;14.368;2023-04-10T00:46:43;101172.78;;;9.94;63.21
65553;BME280;52465;51.560;14.368;2023-04-10T00:49:09;101201.66;;;10.14;63.16
65553;BME280;52465;51.560;14.368;2023-04-10T00:51:37;101226.78;;;10.26;63.00
65553;BME280;52465;51.560;14.368;2023-04-10T00:54:03;101199.84;;;10.14;63.23
65553;BME280;52465;51.560;14.368;2023-04-10T00:56:30;101209.25;;;10.17;63.14
65553;BME280;52465;51.560;14.368;2023-04-10T00:58:56;101206.25;;;10.21;63.17
65553;BME280;52465;51.560;14.368;2023-04-10T01:01:21;101132.06;;;9.71;62.89
65553;BME280;52465;51.560;14.368;2023-04-10T01:03:48;101207.00;;;10.12;63.41
65553;BME280;52465;51.560;14.368;2023-04-10T01:06:52;101215.31;;;10.17;63.60
65553;BME280;52465;51.560;14.368;2023-04-10T01:09:43;101219.31;;;10.21;63.33
65553;BME280;52465;51.560;14.368;2023-04-10T01:12:24;101225.38;;;10.22;63.41
65553;BME280;52465;51.560;14.368;2023-04-10T01:15:11;101223.59;;;10.22;63.23
65553;BME280;52465;51.560;14.368;2023-04-10T01:20:37;101226.31;;;10.21;63.60
65553;BME280;52465;51.560;14.368;2023-04-10T01:25:53;101228.84;;;10.22;63.26
65553;BME280;52465;51.560;14.368;2023-04-10T01:31:15;101223.84;;;10.19;63.12
65553;BME280;52465;51.560;14.368;2023-04-10T01:33:48;101214.03;;;10.12;63.28
65553;BME280;52465;51.560;14.368;2023-04-10T01:36:23;101220.53;;;10.17;63.10
65553;BME280;52465;51.560;14.368;2023-04-10T01:38:52;101223.97;;;10.18;63.25
65553;BME280;52465;51.560;14.368;2023-04-10T01:41:21;101220.53;;;10.17;63.02
65553;BME280;52465;51.560;14.368;2023-04-10T01:43:49;101237.19;;;10.16;63.08
65553;BME280;52465;51.560;14.368;2023-04-10T01:46:18;101199.78;;;9.95;63.01
65553;BME280;52465;51.560;14.368;2023-04-10T01:48:45;101216.91;;;10.08;63.28
65553;BME280;52465;51.560;14.368;2023-04-10T01:51:12;101226.03;;;10.14;63.48
65553;BME280;52465;51.560;14.368;2023-04-10T01:53:39;101214.56;;;10.05;63.49
65553;BME280;52465;51.560;14.368;2023-04-10T01:56:07;101178.19;;;9.81;63.24
65553;BME280;52465;51.560;14.368;2023-04-10T01:58:33;101222.97;;;10.09;63.38
65553;BME280;52465;51.560;14.368;2023-04-10T02:01:00;101168.84;;;9.79;63.70
65553;BME280;52465;51.560;14.368;2023-04-10T02:03:26;101092.56;;;9.22;63.42
65553;BME280;52465;51.560;14.368;2023-04-10T02:06:00;101219.53;;;10.08;63.26
65553;BME280;52465;51.560;14.368;2023-04-10T02:09:05;101219.13;;;10.13;63.60
65553;BME280;52465;51.560;14.368;2023-04-10T02:11:53;101214.66;;;10.04;63.44
65553;BME280;52465;51.560;14.368;2023-04-10T02:14:21;101226.03;;;10.14;63.15
65553;BME280;52465;51.560;14.368;2023-04-10T02:16:52;101157.81;;;9.75;63.30
65553;BME280;52465;51.560;14.368;2023-04-10T02:19:19;101177.44;;;9.91;63.49
65553;BME280;52465;51.560;14.368;2023-04-10T02:21:45;101210.59;;;10.11;63.52
65553;BME280;52465;51.560;14.368;2023-04-10T02:24:13;101209.06;;;10.08;63.36
65553;BME280;52465;51.560;14.368;2023-04-10T02:26:57;101208.09;;;10.10;63.17
65553;BME280;52465;51.560;14.368;2023-04-10T02:29:22;101197.91;;;10.06;63.34
65553;BME280;52465;51.560;14.368;2023-04-10T02:31:47;101201.09;;;10.10;63.08
65553;BME280;52465;51.560;14.368;2023-04-10T02:34:16;101189.63;;;10.01;63.67
65553;BME280;52465;51.560;14.368;2023-04-10T02:36:42;101199.31;;;10.11;63.37
65553;BME280;52465;51.560;14.368;2023-04-10T02:39:09;101194.31;;;10.07;63.51
65553;BME280;52465;51.560;14.368;2023-04-10T02:41:35;101192.53;;;10.08;63.57
65553;BME280;52465;51.560;14.368;2023-04-10T02:44:00;101187.69;;;10.03;63.16
65553;BME280;52465;51.560;14.368;2023-04-10T02:46:44;101149.56;;;9.80;63.67
65553;BME280;52465;51.560;14.368;2023-04-10T02:49:29;101204.78;;;10.07;63.49
65553;BME280;52465;51.560;14.368;2023-04-10T02:52:12;101190.19;;;10.05;63.22
65553;BME280;52465;51.560;14.368;2023-04-10T02:54:38;101132.69;;;9.63;63.39
65553;BME280;52465;51.560;14.368;2023-04-10T02:57:07;101176.16;;;9.85;63.55
65553;BME280;52465;51.560;14.368;2023-04-10T02:59:35;101181.69;;;9.92;63.62
65553;BME280;52465;51.560;14.368;2023-04-10T03:02:02;101185.47;;;9.99;63.12
65553;BME280;52465;51.560;14.368;2023-04-10T03:04:27;101193.63;;;10.05;63.72
65553;BME280;52465;51.560;14.368;2023-04-10T03:07:53;101191.66;;;9.98;63.57
65553;BME280;52465;51.560;14.368;2023-04-10T03:10:18;101209.44;;;10.04;63.66
65553;BME280;52465;51.560;14.368;2023-04-10T03:12:46;101195.53;;;10.03;63.35
65553;BME280;52465;51.560;14.368;2023-04-10T03:15:15;101180.50;;;9.96;63.38
65553;BME280;52465;51.560;14.368;2023-04-10T03:25:50;101191.91;;;9.95;64.70
65553;BME280;52465;51.560;14.368;2023-04-10T03:28:18;101184.91;;;9.95;64.15
65553;BME280;52465;51.560;14.368;2023-04-10T03:30:43;101172.34;;;9.89;64.34
65553;BME280;52465;51.560;14.368;2023-04-10T03:33:09;101162.41;;;9.83;63.88
65553;BME280;52465;51.560;14.368;2023-04-10T03:35:34;101196.09;;;10.07;64.08
65553;BME280;52465;51.560;14.368;2023-04-10T03:38:00;101196.09;;;10.07;63.62
65553;BME280;52465;51.560;14.368;2023-04-10T03:40:25;101175.25;;;9.96;63.90
65553;BME280;52465;51.560;14.368;2023-04-10T03:42:51;101188.91;;;9.99;63.56
65553;BME280;52465;51.560;14.368;2023-04-10T03:45:17;101163.84;;;9.76;63.58
65553;BME280;52465;51.560;14.368;2023-04-10T03:47:43;101178.78;;;9.85;63.28
65553;BME280;52465;51.560;14.368;2023-04-10T03:50:09;101179.16;;;9.80;63.49
65553;BME280;52465;51.560;14.368;2023-04-10T03:52:34;101213.28;;;10.00;63.74
65553;BME280;52465;51.560;14.368;2023-04-10T03:55:00;101201.56;;;9.94;63.33
65553;BME280;52465;51.560;14.368;2023-04-10T03:57:26;101179.16;;;9.80;63.50
65553;BME280;52465;51.560;14.368;2023-04-10T04:00:12;101197.22;;;9.84;63.41
65553;BME280;52465;51.560;14.368;2023-04-10T04:02:37;101148.91;;;9.57;63.38
65553;BME280;52465;51.560;14.368;2023-04-10T04:05:03;101209.50;;;9.93;63.53
65553;BME280;52465;51.560;14.368;2023-04-10T04:07:31;101199.84;;;9.84;63.01
65553;BME280;52465;51.560;14.368;2023-04-10T04:09:57;101209.78;;;9.90;63.43
65553;BME280;52465;51.560;14.368;2023-04-10T04:12:23;101172.72;;;9.64;63.00
65553;BME280;52465;51.560;14.368;2023-04-10T04:14:48;101219.56;;;9.88;63.66
65553;BME280;52465;51.560;14.368;2023-04-10T04:17:14;101209.03;;;9.78;63.36
65553;BME280;52465;51.560;14.368;2023-04-10T04:19:39;101215.09;;;9.78;63.21
65553;BME280;52465;51.560;14.368;2023-04-10T04:22:04;101225.84;;;9.85;63.60
65553;BME280;52465;51.560;14.368;2023-04-10T04:24:30;101225.84;;;9.85;63.35
65553;BME280;52465;51.560;14.368;2023-04-10T04:26:58;101233.72;;;9.85;63.41
65553;BME280;52465;51.560;14.368;2023-04-10T04:29:24;101224.22;;;9.84;63.32
65553;BME280;52465;51.560;14.368;2023-04-10T04:31:49;101223.50;;;9.82;63.04
65553;BME280;52465;51.560;14.368;2023-04-10T04:34:33;101232.19;;;9.83;62.93
65553;BME280;52465;51.560;14.368;2023-04-10T04:36:58;101215.59;;;9.72;63.43
65553;BME280;52465;51.560;14.368;2023-04-10T04:39:26;101223.06;;;9.77;63.26
65553;BME280;52465;51.560;14.368;2023-04-10T04:41:51;101223.06;;;9.77;63.17
65553;BME280;52465;51.560;14.368;2023-04-10T04:44:17;101225.94;;;9.74;63.28
65553;BME280;52465;51.560;14.368;2023-04-10T04:46:43;101235.72;;;9.81;63.13
65553;BME280;52465;51.560;14.368;2023-04-10T04:49:09;101239.31;;;9.80;63.04
65553;BME280;52465;51.560;14.368;2023-04-10T04:51:35;101244.53;;;9.80;63.26
65553;BME280;52465;51.560;14.368;2023-04-10T04:54:02;101183.31;;;9.41;63.55
65553;BME280;52465;51.560;14.368;2023-04-10T04:56:28;101254.19;;;9.80;63.18
65553;BME280;52465;51.560;14.368;2023-04-10T04:58:53;101214.00;;;9.60;63.40
65553;BME280;52465;51.560;14.368;2023-04-10T05:01:19;101248.13;;;9.79;63.16
65553;BME280;52465;51.560;14.368;2023-04-10T05:03:46;101247.53;;;9.76;63.46
65553;BME280;52465;51.560;14.368;2023-04-10T05:06:12;101249.09;;;9.78;63.06
65553;BME280;52465;51.560;14.368;2023-04-10T05:08:38;101249.09;;;9.78;63.43
65553;BME280;52465;51.560;14.368;2023-04-10T05:11:06;101241.97;;;9.69;63.27
65553;BME280;52465;51.560;14.368;2023-04-10T05:13:32;101240.34;;;9.68;63.62
65553;BME280;52465;51.560;14.368;2023-04-10T05:15:58;101255.28;;;9.77;62.96
65553;BME280;52465;51.560;14.368;2023-04-10T05:18:23;101246.00;;;9.73;63.23
65553;BME280;52465;51.560;14.368;2023-04-10T05:20:49;101235.63;;;9.62;63.21
65553;BME280;52465;51.560;14.368;2023-04-10T05:23:15;101260.50;;;9.77;63.04
65553;BME280;52465;51.560;14.368;2023-04-10T05:25:41;101250.16;;;9.76;63.39
65553;BME280;52465;51.560;14.368;2023-04-10T05:28:06;101231.91;;;9.65;62.97
65553;BME280;52465;51.560;14.368;2023-04-10T05:30:32;101222.78;;;9.59;63.35
65553;BME280;52465;51.560;14.368;2023-04-10T05:32:57;101245.78;;;9.76;63.30
65553;BME280;52465;51.560;14.368;2023-04-10T05:35:23;101245.88;;;9.75;63.05
65553;BME280;52465;51.560;14.368;2023-04-10T05:37:48;101255.38;;;9.76;63.56
65553;BME280;52465;51.560;14.368;2023-04-10T05:40:14;101254.81;;;9.72;63.24
65553;BME280;52465;51.560;14.368;2023-04-10T05:42:40;101251.94;;;9.75;63.42
65553;BME280;52465;51.560;14.368;2023-04-10T05:45:06;101204.34;;;9.40;63.42
65553;BME280;52465;51.560;14.368;2023-04-10T05:47:32;101249.13;;;9.67;63.34
65553;BME280;52465;51.560;14.368;2023-04-10T05:49:58;101243.91;;;9.67;63.22
65553;BME280;52465;51.560;14.368;2023-04-10T05:52:23;101243.91;;;9.67;63.16
65553;BME280;52465;51.560;14.368;2023-04-10T05:54:51;101263.34;;;9.74;63.17
65553;BME280;52465;51.560;14.368;2023-04-10T05:57:17;101253.16;;;9.71;63.18
65553;BME280;52465;51.560;14.368;2023-04-10T05:59:43;101259.91;;;9.74;63.08
65553;BME280;52465;51.560;14.368;2023-04-10T06:02:08;101259.78;;;9.75;63.39
65553;BME280;52465;51.560;14.368;2023-04-10T06:04:34;101220.22;;;9.48;63.20
65553;BME280;52465;51.560;14.368;2023-04-10T06:07:00;101223.19;;;9.54;63.46
65553;BME280;52465;51.560;14.368;2023-04-10T06:09:25;101249.59;;;9.72;62.99
65553;BME280;52465;51.560;14.368;2023-04-10T06:11:51;101222.47;;;9.52;63.08
65553;BME280;52465;51.560;14.368;2023-04-10T06:14:18;101264.31;;;9.73;63.53
65553;BME280;52465;51.560;14.368;2023-04-10T06:16:44;101235.84;;;9.59;63.52
65553;BME280;52465;51.560;14.368;2023-04-10T06:19:12;101260.88;;;9.73;63.43
65553;BME280;52465;51.560;14.368;2023-04-10T06:21:38;101249.13;;;9.67;63.33
65553;BME280;52465;51.560;14.368;2023-04-10T06:24:06;101254.69;;;9.74;62.88
65553;BME280;52465;51.560;14.368;2023-04-10T06:26:32;101247.34;;;9.68;63.43
65553;BME280;52465;51.560;14.368;2023-04-10T06:28:58;101263.34;;;9.74;62.98
65553;BME280;52465;51.560;14.368;2023-04-10T06:31:23;101250.41;;;9.73;63.03
65553;BME280;52465;51.560;14.368;2023-04-10T06:33:49;101256.47;;;9.73;63.40
65553;BME280;52465;51.560;14.368;2023-04-10T06:36:15;101240.84;;;9.62;63.34
65553;BME280;52465;51.560;14.368;2023-04-10T06:38:41;101239.50;;;9.68;63.18
65553;BME280;52465;51.560;14.368;2023-04-10T06:41:07;101254.81;;;9.72;63.14
65553;BME280;52465;51.560;14.368;2023-04-10T06:43:33;101252.34;;;9.71;63.26
65553;BME280;52465;51.560;14.368;2023-04-10T06:46:00;101260.75;;;9.74;63.24
65553;BME280;52465;51.560;14.368;2023-04-10T06:48:26;101250.78;;;9.68;63.04
65553;BME280;52465;51.560;14.368;2023-04-10T06:50:52;101258.13;;;9.74;63.10
65553;BME280;52465;51.560;14.368;2023-04-10T06:53:17;101250.78;;;9.68;63.16
65553;BME280;52465;51.560;14.368;2023-04-10T06:55:43;101255.06;;;9.69;63.44
65553;BME280;52465;51.560;14.368;2023-04-10T06:58:08;101251.75;;;9.67;63.14
65553;BME280;52465;51.560;14.368;2023-04-10T07:00:33;101255.88;;;9.70;63.34
65553;BME280;52465;51.560;14.368;2023-04-10T07:02:59;101271.06;;;9.76;63.23
65553;BME280;52465;51.560;14.368;2023-04-10T07:05:24;101213.34;;;9.47;63.19
65553;BME280;52465;51.560;14.368;2023-04-10T07:07:53;101255.44;;;9.65;63.09
65553;BME280;52465;51.560;14.368;2023-04-10T07:10:21;101264.19;;;9.75;63.31
65553;BME280;52465;51.560;14.368;2023-04-10T07:12:49;101256.16;;;9.67;63.38
65553;BME280;52465;51.560;14.368;2023-04-10T07:15:15;101262.66;;;9.72;63.45
65553;BME280;52465;51.560;14.368;2023-04-10T07:17:42;101260.75;;;9.74;63.44
65553;BME280;52465;51.560;14.368;2023-04-10T07:20:08;101253.78;;;9.64;63.38
65553;BME280;52465;51.560;14.368;2023-04-10T07:22:33;101241.53;;;9.64;63.49
65553;BME280;52465;51.560;14.368;2023-04-10T07:24:59;101232.31;;;9.60;63.63
65553;BME280;52465;51.560;14.368;2023-04-10T07:27:25;101259.91;;;9.74;63.19
65553;BME280;52465;51.560;14.368;2023-04-10T07:29:53;101256.59;;;9.72;63.44
65553;BME280;52465;51.560;14.368;2023-04-10T07:32:19;101254.09;;;9.70;63.40
65553;BME280;52465;51.560;14.368;2023-04-10T07:43:09;101211.22;;;9.41;64.72
65553;BME280;52465;51.560;14.368;2023-04-10T07:45:34;101240.09;;;9.71;64.23
65553;BME280;52465;51.560;14.368;2023-04-10T07:48:03;101231.28;;;9.72;64.00
65553;BME280;52465;51.560;14.368;2023-04-10T07:50:30;101224.50;;;9.70;63.98
65553;BME280;52465;51.560;14.368;2023-04-10T07:52:56;101213.22;;;9.69;63.77
65553;BME280;52465;51.560;14.368;2023-04-10T07:55:21;101233.13;;;9.81;63.44
65553;BME280;52465;51.560;14.368;2023-04-10T07:57:46;101220.81;;;9.72;63.91
65553;BME280;52465;51.560;14.368;2023-04-10T08:00:12;101225.16;;;9.83;63.81
65553;BME280;52465;51.560;14.368;2023-04-10T08:02:38;101236.19;;;9.87;63.59
65553;BME280;52465;51.560;14.368;2023-04-10T08:05:06;101232.19;;;9.83;63.57
65553;BME280;52465;51.560;14.368;2023-04-10T08:07:34;101234.41;;;9.87;63.32
65553;BME280;52465;51.560;14.368;2023-04-10T08:10:01;101234.59;;;9.74;63.34
65553;BME280;52465;51.560;14.368;2023-04-10T08:12:26;101205.38;;;9.69;63.21
65553;BME280;52465;51.560;14.368;2023-04-10T08:14:52;101234.41;;;9.87;63.22
65553;BME280;52465;51.560;14.368;2023-04-10T08:17:17;101237.66;;;9.79;63.58
65553;BME280;52465;51.560;14.368;2023-04-10T08:19:43;101213.44;;;9.77;63.56
65553;BME280;52465;51.560;14.368;2023-04-10T08:22:08;101224.91;;;9.86;63.19
65553;BME280;52465;51.560;14.368;2023-04-10T08:24:34;101177.66;;;9.57;63.27
65553;BME280;52465;51.560;14.368;2023-04-10T08:27:00;101197.44;;;9.71;63.18
65553;BME280;52465;51.560;14.368;2023-04-10T08:29:28;101215.25;;;9.87;63.48
65553;BME280;52465;51.560;14.368;2023-04-10T08:31:54;101211.00;;;9.86;63.51
65553;BME280;52465;51.560;14.368;2023-04-10T08:34:20;101220.38;;;9.88;63.35
65553;BME280;52465;51.560;14.368;2023-04-10T08:36:48;101176.59;;;9.60;63.40
65553;BME280;52465;51.560;14.368;2023-04-10T08:39:13;101212.78;;;9.85;63.49
65553;BME280;52465;51.560;14.368;2023-04-10T08:41:39;101206.97;;;9.81;63.48
65553;BME280;52465;51.560;14.368;2023-04-10T08:44:06;101213.47;;;9.87;63.21
65553;BME280;52465;51.560;14.368;2023-04-10T08:46:35;101217.63;;;9.90;63.16
65553;BME280;52465;51.560;14.368;2023-04-10T08:49:02;101150.59;;;9.47;63.50
65553;BME280;52465;51.560;14.368;2023-04-10T08:51:41;101208.81;;;9.91;63.55
65553;BME280;52465;51.560;14.368;2023-04-10T08:54:18;101214.06;;;9.91;63.49
65553;BME280;52465;51.560;14.368;2023-04-10T08:56:52;101204.28;;;9.93;63.23
65553;BME280;52465;51.560;14.368;2023-04-10T08:59:18;101204.19;;;9.94;63.50
65553;BME280;52465;51.560;14.368;2023-04-10T09:01:44;101216.16;;;9.97;63.36
65553;BME280;52465;51.560;14.368;2023-04-10T09:04:12;101194.47;;;9.85;63.24
65553;BME280;52465;51.560;14.368;2023-04-10T09:06:37;101197.84;;;9.97;63.54
65553;BME280;52465;51.560;14.368;2023-04-10T09:09:07;101198.66;;;9.97;63.56
65553;BME280;52465;51.560;14.368;2023-04-10T09:14:20;101194.25;;;9.98;63.38
65553;BME280;52465;51.560;14.368;2023-04-10T09:16:46;101170.78;;;9.87;63.67
65553;BME280;52465;51.560;14.368;2023-04-10T09:19:12;101177.19;;;9.94;63.40
65553;BME280;52465;51.560;14.368;2023-04-10T09:21:38;101194.84;;;10.01;63.31
65553;BME280;52465;51.560;14.368;2023-04-10T09:24:03;101188.91;;;9.99;63.64
65553;BME280;52465;51.560;14.368;2023-04-10T09:26:31;101145.16;;;9.80;63.37
65553;BME280;52465;51.560;14.368;2023-04-10T09:29:06;101185.78;;;10.05;63.33
65553;BME280;52465;51.560;14.368;2023-04-10T09:31:38;101175.31;;;10.05;63.46
65553;BME280;52465;51.560;14.368;2023-04-10T09:34:21;101164.41;;;10.00;63.22
65553;BME280;52465;51.560;14.368;2023-04-10T09:36:58;101138.88;;;9.93;63.53
65553;BME280;52465;51.560;14.368;2023-04-10T09:42:00;101155.38;;;10.14;63.28
65553;BME280;52465;51.560;14.368;2023-04-10T09:44:32;101136.31;;;10.02;63.45
65553;BME280;52465;51.560;14.368;2023-04-10T09:46:58;101153.47;;;10.16;63.53
65553;BME280;52465;51.560;14.368;2023-04-10T09:49:58;101132.19;;;10.00;63.49
65553;BME280;52465;51.560;14.368;2023-04-10T09:52:28;101139.97;;;10.11;63.25
65553;BME280;52465;51.560;14.368;2023-04-10T09:54:56;101148.69;;;10.21;63.23
65553;BME280;52465;51.560;14.368;2023-04-10T09:57:25;101109.88;;;9.96;63.29
65553;BME280;52465;51.560;14.368;2023-04-10T09:59:54;101100.63;;;9.92;63.24
65553;BME280;52465;51.560;14.368;2023-04-10T10:02:22;101145.66;;;10.26;63.04
65553;BME280;52465;51.560;14.368;2023-04-10T10:04:48;101111.44;;;10.08;62.86
65553;BME280;52465;51.560;14.368;2023-04-10T10:07:16;101140.19;;;10.29;63.31
65553;BME280;52465;51.560;14.368;2023-04-10T10:09:43;101141.59;;;10.33;62.96
65553;BME280;52465;51.560;14.368;2023-04-10T10:12:15;101106.09;;;10.19;63.02
65553;BME280;52465;51.560;14.368;2023-04-10T10:14:57;101129.91;;;10.47;63.15
65553;BME280;52465;51.560;14.368;2023-04-10T10:17:29;101127.03;;;10.69;62.70
65553;BME280;52465;51.560;14.368;2023-04-10T10:20:07;101128.44;;;10.93;62.05
65553;BME280;52465;51.560;14.368;2023-04-10T10:22:34;101101.94;;;11.05;61.59
65553;BME280;52465;51.560;14.368;2023-04-10T10:25:01;101073.41;;;11.02;61.38
65553;BME280;52465;51.560;14.368;2023-04-10T10:27:31;101102.63;;;11.36;61.17
65553;BME280;52465;51.560;14.368;2023-04-10T10:29:59;101107.94;;;11.54;60.93
65553;BME280;52465;51.560;14.368;2023-04-10T10:32:29;101102.84;;;11.62;61.05
65553;BME280;52465;51.560;14.368;2023-04-10T10:34:54;101067.13;;;11.52;60.80
65553;BME280;52465;51.560;14.368;2023-04-10T10:37:22;101101.00;;;11.82;60.81
65553;BME280;52465;51.560;14.368;2023-04-10T10:40:06;101097.78;;;11.88;60.59
65553;BME280;52465;51.560;14.368;2023-04-10T10:42:56;101087.41;;;11.97;60.61
65553;BME280;52465;51.560;14.368;2023-04-10T10:45:31;101071.94;;;11.94;60.87
65553;BME280;52465;51.560;14.368;2023-04-10T10:48:20;101091.50;;;12.09;60.62
65553;BME280;52465;51.560;14.368;2023-04-10T10:50:55;101085.25;;;12.10;60.65
65553;BME280;52465;51.560;14.368;2023-04-10T10:53:39;101074.50;;;12.13;60.64
65553;BME280;52465;51.560;14.368;2023-04-10T10:58:49;101068.50;;;12.21;60.88
65553;BME280;52465;51.560;14.368;2023-04-10T11:01:16;101061.28;;;12.23;60.74
65553;BME280;52465;51.560;14.368;2023-04-10T11:03:42;101054.22;;;12.23;60.78
65553;BME280;52465;51.560;14.368;2023-04-10T11:06:13;101048.69;;;12.26;60.86
65553;BME280;52465;51.560;14.368;2023-04-10T11:08:42;101031.59;;;12.22;61.02
65553;BME280;52465;51.560;14.368;2023-04-10T11:11:20;101047.00;;;12.35;60.73
65553;BME280;52465;51.560;14.368;2023-04-10T11:21:28;100985.00;;;12.06;60.68
65553;BME280;52465;51.560;14.368;2023-04-10T11:26:35;101019.81;;;12.44;61.22
65553;BME280;52465;51.560;14.368;2023-04-10T11:29:05;101016.38;;;12.43;60.89
65553;BME280;52465;51.560;14.368;2023-04-10T11:31:34;101010.53;;;12.50;60.86
65553;BME280;52465;51.560;14.368;2023-04-10T11:34:01;101006.78;;;12.52;61.13
65553;BME280;52465;51.560;14.368;2023-04-10T11:36:27;101000.03;;;12.50;60.97
65553;BME280;52465;51.560;14.368;2023-04-10T11:41:19;100975.50;;;12.41;61.42
65553;BME280;52465;51.560;14.368;2023-04-10T11:43:50;100988.69;;;12.49;61.13
65553;BME280;52465;51.560;14.368;2023-04-10T11:46:16;100988.28;;;12.62;60.84
65553;BME280;52465;51.560;14.368;2023-04-10T11:48:41;100964.06;;;12.50;61.13
65553;BME280;52465;51.560;14.368;2023-04-10T11:51:10;100965.88;;;12.50;60.88
65553;BME280;52465;51.560;14.368;2023-04-10T11:53:37;100972.53;;;12.62;61.04
65553;BME280;52465;51.560;14.368;2023-04-10T11:56:03;100957.47;;;12.64;60.93
65553;BME280;52465;51.560;14.368;2023-04-10T11:58:29;100939.97;;;12.55;61.06
65553;BME280;52465;51.560;14.368;2023-04-10T12:01:03;100958.78;;;12.68;61.20
65553;BME280;52465;51.560;14.368;2023-04-10T12:05:57;100955.22;;;12.69;61.25
65553;BME280;52465;51.560;14.368;2023-04-10T12:08:31;100951.53;;;12.62;61.31
65553;BME280;52465;51.560;14.368;2023-04-10T12:10:58;100921.97;;;12.60;61.05
65553;BME280;52465;51.560;14.368;2023-04-10T12:13:28;100944.53;;;12.70;61.07
65553;BME280;52465;51.560;14.368;2023-04-10T12:15:57;100930.88;;;12.67;61.03
65553;BME280;52465;51.560;14.368;2023-04-10T12:18:23;100919.03;;;12.63;61.07
65553;BME280;52465;51.560;14.368;2023-04-10T12:20:49;100922.34;;;12.65;61.18
65553;BME280;52465;51.560;14.368;2023-04-10T12:23:17;100914.75;;;12.62;61.08
65553;BME280;52465;51.560;14.368;2023-04-10T12:25:42;100923.53;;;12.70;61.33
65553;BME280;52465;51.560;14.368;2023-04-10T12:28:08;100904.94;;;12.64;61.15
65553;BME280;52465;51.560;14.368;2023-04-10T12:30:33;100896.34;;;12.62;61.33
65553;BME280;52465;51.560;14.368;2023-04-10T12:32:59;100905.94;;;12.71;61.13
65553;BME280;52465;51.560;14.368;2023-04-10T12:35:38;100909.56;;;12.70;61.21
65553;BME280;52465;51.560;14.368;2023-04-10T12:38:03;100901.00;;;12.68;61.02
65553;BME280;52465;51.560;14.368;2023-04-10T12:40:29;100864.63;;;12.55;61.51
65553;BME280;52465;51.560;14.368;2023-04-10T12:42:55;100892.00;;;12.70;60.96
65553;BME280;52465;51.560;14.368;2023-04-10T12:45:20;100908.63;;;12.79;61.06
65553;BME280;52465;51.560;14.368;2023-04-10T12:47:48;100904.34;;;12.78;61.08
65553;BME280;52465;51.560;14.368;2023-04-10T12:50:16;100902.41;;;12.80;61.02
65553;BME280;52465;51.560;14.368;2023-04-10T12:52:43;100882.31;;;12.71;61.22
65553;BME280;52465;51.560;14.368;2023-04-10T12:57:35;100889.94;;;12.82;61.20
65553;BME280;52465;51.560;14.368;2023-04-10T13:00:01;100861.59;;;12.68;61.35
65553;BME280;52465;51.560;14.368;2023-04-10T13:02:27;100843.19;;;12.68;61.28
65553;BME280;52465;51.560;14.368;2023-04-10T13:04:54;100861.00;;;12.74;61.25
65553;BME280;52465;51.560;14.368;2023-04-10T13:07:19;100872.06;;;12.86;61.27
65553;BME280;52465;51.560;14.368;2023-04-10T13:09:45;100839.91;;;12.66;61.12
65553;BME280;52465;51.560;14.368;2023-04-10T13:12:11;100873.53;;;12.88;60.87
65553;BME280;52465;51.560;14.368;2023-04-10T13:14:37;100829.56;;;12.64;60.86
65553;BME280;52465;51.560;14.368;2023-04-10T13:17:02;100855.13;;;12.88;61.01
65553;BME280;52465;51.560;14.368;2023-04-10T13:19:28;100830.94;;;12.77;61.21
65553;BME280;52465;51.560;14.368;2023-04-10T13:21:53;100858.13;;;12.93;60.84
65553;BME280;52465;51.560;14.368;2023-04-10T13:24:18;100821.25;;;12.77;61.19
65553;BME280;52465;51.560;14.368;2023-04-10T13:26:44;100809.41;;;12.73;61.29
65553;BME280;52465;51.560;14.368;2023-04-10T13:29:09;100838.09;;;12.92;60.85
65553;BME280;52465;51.560;14.368;2023-04-10T13:31:35;100838.28;;;12.99;61.04
65553;BME280;52465;51.560;14.368;2023-04-10T13:34:00;100812.75;;;12.83;61.20
65553;BME280;52465;51.560;14.368;2023-04-10T13:36:26;100825.78;;;13.01;61.27
65553;BME280;52465;51.560;14.368;2023-04-10T13:38:54;100820.41;;;13.03;60.81
65553;BME280;52465;51.560;14.368;2023-04-10T13:41:19;100816.09;;;13.02;61.13